createdAt,value
2024-03-16T00:02:38.795Z,94.60
2024-03-16T00:05:24.275Z,95.10
2024-03-16T00:08:09.738Z,95.90
2024-03-16T00:10:55.916Z,95.80
2024-03-16T00:13:41.544Z,96.20
2024-03-16T00:16:27.167Z,96.40
2024-03-16T00:19:12.706Z,96.60
2024-03-16T00:21:58.824Z,97.00
2024-03-16T00:24:44.400Z,97.20
2024-03-16T00:27:30.131Z,97.30
2024-03-16T00:30:16.273Z,97.60
2024-03-16T00:33:02.217Z,97.70
2024-03-16T00:35:47.720Z,97.90
2024-03-16T00:38:33.789Z,97.80
2024-03-16T00:41:19.310Z,98.00
2024-03-16T00:44:04.836Z,98.10
2024-03-16T00:46:50.327Z,98.10
2024-03-16T00:49:37.514Z,98.10
2024-03-16T00:52:23.226Z,98.20
2024-03-16T00:55:08.492Z,97.80
2024-03-16T00:57:53.957Z,97.70
2024-03-16T01:00:39.703Z,97.70
2024-03-16T01:03:27.543Z,97.50
2024-03-16T01:06:12.895Z,97.40
2024-03-16T01:08:58.414Z,97.40
2024-03-16T01:11:46.848Z,97.00
2024-03-16T01:14:32.150Z,97.00
2024-03-16T01:17:17.636Z,97.00
2024-03-16T01:20:03.825Z,97.00
2024-03-16T01:22:49.168Z,96.80
2024-03-16T01:25:34.912Z,96.70
2024-03-16T01:28:20.163Z,95.90
2024-03-16T01:31:05.764Z,95.70
2024-03-16T01:33:52.189Z,95.00
2024-03-16T01:36:37.988Z,95.30
2024-03-16T01:39:23.204Z,94.80
2024-03-16T01:42:08.947Z,95.10
2024-03-16T01:45:11.474Z,95.60
2024-03-16T01:47:57.027Z,96.10
2024-03-16T01:50:43.114Z,96.60
2024-03-16T01:53:28.338Z,96.90
2024-03-16T01:56:14.003Z,97.50
2024-03-16T01:58:59.722Z,98.00
2024-03-16T02:01:45.141Z,98.20
2024-03-16T02:04:30.944Z,98.40
2024-03-16T02:07:16.304Z,98.90
2024-03-16T02:10:05.830Z,99.00
2024-03-16T02:12:51.571Z,99.50
2024-03-16T02:15:37.221Z,99.60
2024-03-16T02:18:22.509Z,99.40
2024-03-16T02:21:11.805Z,99.60
2024-03-16T02:23:57.063Z,99.90
2024-03-16T02:26:42.634Z,99.80
2024-03-16T02:29:28.778Z,99.80
2024-03-16T02:32:15.901Z,99.80
2024-03-16T02:35:02.010Z,99.80
2024-03-16T02:37:47.482Z,99.80
2024-03-16T02:40:33.064Z,99.90
2024-03-16T02:43:18.685Z,99.90
2024-03-16T02:46:06.786Z,99.90
2024-03-16T02:48:52.264Z,99.90
2024-03-16T02:51:38.125Z,99.90
2024-03-16T02:54:26.919Z,99.90
2024-03-16T02:57:12.577Z,99.90
2024-03-16T02:59:58.512Z,99.90
2024-03-16T03:02:43.780Z,99.90
2024-03-16T03:05:29.330Z,99.90
2024-03-16T03:08:14.859Z,99.90
2024-03-16T03:11:00.524Z,99.90
2024-03-16T03:13:48.569Z,99.90
2024-03-16T03:16:34.628Z,99.90
2024-03-16T03:19:19.953Z,99.90
2024-03-16T03:22:06.405Z,99.90
2024-03-16T03:24:52.221Z,99.90
2024-03-16T03:27:37.742Z,99.90
2024-03-16T03:30:23.385Z,99.90
2024-03-16T03:33:10.061Z,99.90
2024-03-16T03:35:56.019Z,99.90
2024-03-16T03:38:41.623Z,99.90
2024-03-16T03:41:28.771Z,99.90
2024-03-16T03:44:25.328Z,99.90
2024-03-16T03:47:11.213Z,99.90
2024-03-16T03:49:57.481Z,99.90
2024-03-16T03:52:43.193Z,99.90
2024-03-16T03:55:28.743Z,99.90
2024-03-16T03:58:14.501Z,99.90
2024-03-16T04:01:01.402Z,99.90
2024-03-16T04:03:47.243Z,99.90
2024-03-16T04:06:32.734Z,99.90
2024-03-16T04:09:18.384Z,99.90
2024-03-16T04:12:04.507Z,99.90
2024-03-16T04:14:49.818Z,99.90
2024-03-16T04:17:35.409Z,99.90
2024-03-16T04:20:21.642Z,99.90
2024-03-16T04:23:09.270Z,99.90
2024-03-16T04:25:54.846Z,99.90
2024-03-16T04:28:40.441Z,99.90
2024-03-16T04:31:25.879Z,99.90
2024-03-16T04:34:11.684Z,99.90
2024-03-16T04:36:57.189Z,99.90
2024-03-16T04:39:44.779Z,99.90
2024-03-16T04:42:30.531Z,99.90
2024-03-16T04:45:15.912Z,99.90
2024-03-16T04:48:01.428Z,99.90
2024-03-16T04:50:48.853Z,99.90
2024-03-16T04:53:34.748Z,99.90
2024-03-16T04:56:20.205Z,99.90
2024-03-16T04:59:05.956Z,99.90
2024-03-16T05:01:51.699Z,99.90
2024-03-16T05:04:37.086Z,99.90
2024-03-16T05:07:24.724Z,99.90
2024-03-16T05:10:10.568Z,99.90
2024-03-16T05:12:56.279Z,99.90
2024-03-16T05:15:42.042Z,99.90
2024-03-16T05:18:30.345Z,99.90
2024-03-16T05:21:15.687Z,99.90
2024-03-16T05:24:02.104Z,99.90
2024-03-16T05:26:48.443Z,99.90
2024-03-16T05:29:33.796Z,99.90
2024-03-16T05:32:19.324Z,99.90
2024-03-16T05:35:07.921Z,99.90
2024-03-16T05:37:53.776Z,99.90
2024-03-16T05:40:40.206Z,99.90
2024-03-16T05:43:26.094Z,99.90
2024-03-16T05:46:12.696Z,99.90
2024-03-16T05:48:58.609Z,99.90
2024-03-16T05:51:44.544Z,99.90
2024-03-16T05:54:35.433Z,99.90
2024-03-16T05:57:21.186Z,99.90
2024-03-16T06:00:14.921Z,99.90
2024-03-16T06:03:01.007Z,99.90
2024-03-16T06:05:47.953Z,99.90
2024-03-16T06:08:34.786Z,99.90
2024-03-16T06:11:20.299Z,99.90
2024-03-16T06:14:05.887Z,99.90
2024-03-16T06:16:51.395Z,99.90
2024-03-16T06:19:36.752Z,99.90
2024-03-16T06:22:23.062Z,99.90
2024-03-16T06:25:09.386Z,99.90
2024-03-16T06:27:55.517Z,99.90
2024-03-16T06:30:41.291Z,99.90
2024-03-16T06:33:31.555Z,99.90
2024-03-16T06:36:17.101Z,99.90
2024-03-16T06:39:11.679Z,99.90
2024-03-16T06:41:58.267Z,99.90
2024-03-16T06:44:43.725Z,99.90
2024-03-16T06:47:29.451Z,99.90
2024-03-16T06:50:15.162Z,99.90
2024-03-16T06:53:00.746Z,99.90
2024-03-16T06:55:52.730Z,99.40
2024-03-16T06:58:38.016Z,98.60
2024-03-16T07:01:26.008Z,98.40
2024-03-16T07:04:13.936Z,98.70
2024-03-16T07:06:59.158Z,98.60
2024-03-16T07:09:47.125Z,98.60
2024-03-16T07:12:33.558Z,98.90
2024-03-16T07:15:19.479Z,99.40
2024-03-16T07:18:05.336Z,99.60
2024-03-16T07:20:50.914Z,99.60
2024-03-16T07:23:36.645Z,99.70
2024-03-16T07:26:22.000Z,99.90
2024-03-16T07:29:07.602Z,99.90
2024-03-16T07:31:54.222Z,99.90
2024-03-16T07:34:40.087Z,99.90
2024-03-16T07:37:25.343Z,99.90
2024-03-16T07:40:17.148Z,99.90
2024-03-16T07:43:03.146Z,99.90
2024-03-16T07:45:52.264Z,99.90
2024-03-16T07:48:37.666Z,99.70
2024-03-16T07:51:30.057Z,99.70
2024-03-16T07:54:16.600Z,99.20
2024-03-16T07:57:02.823Z,98.90
2024-03-16T07:59:51.361Z,98.20
2024-03-16T08:02:37.112Z,97.30
2024-03-16T08:05:22.480Z,97.00
2024-03-16T08:08:08.120Z,96.50
2024-03-16T08:10:55.895Z,96.10
2024-03-16T08:13:41.879Z,96.00
2024-03-16T08:16:27.233Z,96.00
2024-03-16T08:19:16.329Z,96.00
2024-03-16T08:22:01.932Z,95.30
2024-03-16T08:24:48.176Z,94.50
2024-03-16T08:27:37.772Z,94.10
2024-03-16T08:30:23.343Z,94.10
2024-03-16T08:33:09.032Z,93.10
2024-03-16T08:35:54.513Z,92.90
2024-03-16T08:38:40.148Z,91.90
2024-03-16T08:41:27.031Z,91.80
2024-03-16T08:44:15.473Z,91.40
2024-03-16T08:47:00.812Z,90.60
2024-03-16T08:49:46.493Z,90.00
2024-03-16T08:52:34.439Z,89.10
2024-03-16T08:55:23.656Z,88.80
2024-03-16T08:58:09.582Z,88.40
2024-03-16T09:00:55.274Z,88.60
2024-03-16T09:03:40.541Z,89.20
2024-03-16T09:06:26.431Z,89.20
2024-03-16T09:09:12.447Z,87.60
2024-03-16T09:11:57.606Z,85.40
2024-03-16T09:14:44.184Z,84.60
2024-03-16T09:17:31.101Z,86.00
2024-03-16T09:20:16.600Z,83.90
2024-03-16T09:23:02.389Z,83.10
2024-03-16T09:25:54.983Z,81.10
2024-03-16T09:28:40.120Z,78.30
2024-03-16T09:31:28.494Z,78.50
2024-03-16T09:34:15.672Z,79.10
2024-03-16T09:37:00.963Z,78.50
2024-03-16T09:39:46.609Z,77.20
2024-03-16T09:42:32.541Z,73.80
